sensor_id;sensor_type;location;lat;lon;timestamp;temperature;humidity
49132;DHT22;35149;51.196;6.204;2022-12-29T00:00:11;14.20;72.50
49132;DHT22;35149;51.196;6.204;2022-12-29T00:02:38;14.20;72.50
49132;DHT22;35149;51.196;6.204;2022-12-29T00:05:13;14.20;72.50
49132;DHT22;35149;51.196;6.204;2022-12-29T00:07:41;14.20;72.60
49132;DHT22;35149;51.196;6.204;2022-12-29T00:10:13;14.20;72.70
49132;DHT22;35149;51.196;6.204;2022-12-29T00:12:39;14.20;72.50
49132;DHT22;35149;51.196;6.204;2022-12-29T00:15:26;14.20;72.50
49132;DHT22;35149;51.196;6.204;2022-12-29T00:18:10;14.30;72.60
49132;DHT22;35149;51.196;6.204;2022-12-29T00:20:37;14.20;72.70
49132;DHT22;35149;51.196;6.204;2022-12-29T00:23:32;14.20;72.80
49132;DHT22;35149;51.196;6.204;2022-12-29T00:26:32;14.30;72.90
49132;DHT22;35149;51.196;6.204;2022-12-29T00:29:20;14.20;72.90
49132;DHT22;35149;51.196;6.204;2022-12-29T00:32:09;14.20;73.10
49132;DHT22;35149;51.196;6.204;2022-12-29T00:34:59;14.20;73.10
49132;DHT22;35149;51.196;6.204;2022-12-29T00:37:43;14.10;73.20
49132;DHT22;35149;51.196;6.204;2022-12-29T00:40:30;14.10;73.30
49132;DHT22;35149;51.196;6.204;2022-12-29T00:43:16;14.10;73.20
49132;DHT22;35149;51.196;6.204;2022-12-29T00:46:01;14.10;73.20
49132;DHT22;35149;51.196;6.204;2022-12-29T00:48:29;14.00;73.10
49132;DHT22;35149;51.196;6.204;2022-12-29T00:51:17;14.00;73.20
49132;DHT22;35149;51.196;6.204;2022-12-29T00:53:47;14.00;73.20
49132;DHT22;35149;51.196;6.204;2022-12-29T00:56:15;14.10;73.10
49132;DHT22;35149;51.196;6.204;2022-12-29T00:58:45;14.10;73.10
49132;DHT22;35149;51.196;6.204;2022-12-29T01:01:15;14.10;72.90
49132;DHT22;35149;51.196;6.204;2022-12-29T01:03:47;14.10;72.70
49132;DHT22;35149;51.196;6.204;2022-12-29T01:06:14;14.20;72.50
49132;DHT22;35149;51.196;6.204;2022-12-29T01:08:43;14.20;72.40
49132;DHT22;35149;51.196;6.204;2022-12-29T01:11:11;14.20;72.30
49132;DHT22;35149;51.196;6.204;2022-12-29T01:13:45;14.30;72.20
49132;DHT22;35149;51.196;6.204;2022-12-29T01:16:14;14.30;72.00
49132;DHT22;35149;51.196;6.204;2022-12-29T01:18:46;14.40;71.90
49132;DHT22;35149;51.196;6.204;2022-12-29T01:21:13;14.40;71.70
49132;DHT22;35149;51.196;6.204;2022-12-29T01:23:42;14.40;71.50
49132;DHT22;35149;51.196;6.204;2022-12-29T01:26:14;14.40;71.40
49132;DHT22;35149;51.196;6.204;2022-12-29T01:28:43;14.50;71.20
49132;DHT22;35149;51.196;6.204;2022-12-29T01:31:12;14.50;71.00
49132;DHT22;35149;51.196;6.204;2022-12-29T01:33:42;14.50;70.80
49132;DHT22;35149;51.196;6.204;2022-12-29T01:36:14;14.50;70.80
49132;DHT22;35149;51.196;6.204;2022-12-29T01:38:44;14.50;70.70
49132;DHT22;35149;51.196;6.204;2022-12-29T01:41:13;14.50;70.40
49132;DHT22;35149;51.196;6.204;2022-12-29T01:43:47;14.60;70.20
49132;DHT22;35149;51.196;6.204;2022-12-29T01:49:24;14.60;69.90
49132;DHT22;35149;51.196;6.204;2022-12-29T01:51:58;14.60;69.60
49132;DHT22;35149;51.196;6.204;2022-12-29T01:54:38;14.60;69.70
49132;DHT22;35149;51.196;6.204;2022-12-29T01:57:10;14.50;69.40
49132;DHT22;35149;51.196;6.204;2022-12-29T01:59:45;14.50;69.50
49132;DHT22;35149;51.196;6.204;2022-12-29T02:02:14;14.50;69.90
49132;DHT22;35149;51.196;6.204;2022-12-29T02:04:49;14.60;69.40
49132;DHT22;35149;51.196;6.204;2022-12-29T02:07:23;14.60;69.30
49132;DHT22;35149;51.196;6.204;2022-12-29T02:09:55;14.60;69.10
49132;DHT22;35149;51.196;6.204;2022-12-29T02:12:23;14.50;69.00
49132;DHT22;35149;51.196;6.204;2022-12-29T02:14:55;14.60;68.80
49132;DHT22;35149;51.196;6.204;2022-12-29T02:23:14;14.60;68.10
49132;DHT22;35149;51.196;6.204;2022-12-29T02:39:24;14.70;68.30
49132;DHT22;35149;51.196;6.204;2022-12-29T02:42:46;14.70;68.00
49132;DHT22;35149;51.196;6.204;2022-12-29T02:45:15;14.70;68.10
49132;DHT22;35149;51.196;6.204;2022-12-29T02:50:40;14.70;68.30
49132;DHT22;35149;51.196;6.204;2022-12-29T02:53:13;14.70;68.40
49132;DHT22;35149;51.196;6.204;2022-12-29T02:55:48;14.70;68.30
49132;DHT22;35149;51.196;6.204;2022-12-29T02:58:23;14.70;68.20
49132;DHT22;35149;51.196;6.204;2022-12-29T03:03:31;14.80;68.40
49132;DHT22;35149;51.196;6.204;2022-12-29T03:09:16;14.70;68.00
49132;DHT22;35149;51.196;6.204;2022-12-29T03:11:58;14.70;68.00
49132;DHT22;35149;51.196;6.204;2022-12-29T03:14:52;14.70;68.20
49132;DHT22;35149;51.196;6.204;2022-12-29T03:21:00;14.70;68.40
49132;DHT22;35149;51.196;6.204;2022-12-29T03:23:29;14.70;68.40
49132;DHT22;35149;51.196;6.204;2022-12-29T03:26:00;14.70;68.60
49132;DHT22;35149;51.196;6.204;2022-12-29T03:28:36;14.70;68.70
49132;DHT22;35149;51.196;6.204;2022-12-29T03:31:08;14.70;68.80
49132;DHT22;35149;51.196;6.204;2022-12-29T03:33:38;14.60;68.80
49132;DHT22;35149;51.196;6.204;2022-12-29T03:36:14;14.70;68.90
49132;DHT22;35149;51.196;6.204;2022-12-29T03:39:14;14.70;69.00
49132;DHT22;35149;51.196;6.204;2022-12-29T03:41:43;14.70;68.90
49132;DHT22;35149;51.196;6.204;2022-12-29T03:44:13;14.70;69.10
49132;DHT22;35149;51.196;6.204;2022-12-29T03:46:48;14.60;69.00
49132;DHT22;35149;51.196;6.204;2022-12-29T03:49:18;14.60;69.10
49132;DHT22;35149;51.196;6.204;2022-12-29T03:51:45;14.70;69.10
49132;DHT22;35149;51.196;6.204;2022-12-29T03:54:12;14.60;69.10
49132;DHT22;35149;51.196;6.204;2022-12-29T03:56:38;14.70;69.00
49132;DHT22;35149;51.196;6.204;2022-12-29T03:59:05;14.70;69.10
49132;DHT22;35149;51.196;6.204;2022-12-29T04:01:37;14.70;69.00
49132;DHT22;35149;51.196;6.204;2022-12-29T04:04:04;14.70;69.00
49132;DHT22;35149;51.196;6.204;2022-12-29T04:06:31;14.70;68.90
49132;DHT22;35149;51.196;6.204;2022-12-29T04:09:04;14.70;68.80
49132;DHT22;35149;51.196;6.204;2022-12-29T04:11:39;14.70;68.70
49132;DHT22;35149;51.196;6.204;2022-12-29T04:14:08;14.70;68.60
49132;DHT22;35149;51.196;6.204;2022-12-29T04:16:38;14.80;68.60
49132;DHT22;35149;51.196;6.204;2022-12-29T04:19:06;14.80;68.50
49132;DHT22;35149;51.196;6.204;2022-12-29T04:21:35;14.80;68.40
49132;DHT22;35149;51.196;6.204;2022-12-29T04:24:02;14.80;68.30
49132;DHT22;35149;51.196;6.204;2022-12-29T04:26:31;14.80;68.10
49132;DHT22;35149;51.196;6.204;2022-12-29T04:29:28;14.80;68.10
49132;DHT22;35149;51.196;6.204;2022-12-29T04:32:07;14.80;67.80
49132;DHT22;35149;51.196;6.204;2022-12-29T04:34:41;14.80;67.70
49132;DHT22;35149;51.196;6.204;2022-12-29T04:37:09;14.90;67.50
49132;DHT22;35149;51.196;6.204;2022-12-29T04:39:40;14.90;67.30
49132;DHT22;35149;51.196;6.204;2022-12-29T04:42:08;14.90;67.10
49132;DHT22;35149;51.196;6.204;2022-12-29T04:44:39;14.90;67.00
49132;DHT22;35149;51.196;6.204;2022-12-29T04:47:29;14.90;66.70
49132;DHT22;35149;51.196;6.204;2022-12-29T04:50:21;14.90;66.50
49132;DHT22;35149;51.196;6.204;2022-12-29T04:53:03;14.90;66.50
49132;DHT22;35149;51.196;6.204;2022-12-29T04:55:35;15.00;66.50
49132;DHT22;35149;51.196;6.204;2022-12-29T04:58:03;14.90;66.60
49132;DHT22;35149;51.196;6.204;2022-12-29T05:00:32;14.90;66.50
49132;DHT22;35149;51.196;6.204;2022-12-29T05:03:05;14.90;66.70
49132;DHT22;35149;51.196;6.204;2022-12-29T05:05:32;14.80;66.90
49132;DHT22;35149;51.196;6.204;2022-12-29T05:08:00;14.80;66.80
49132;DHT22;35149;51.196;6.204;2022-12-29T05:10:30;14.70;67.00
49132;DHT22;35149;51.196;6.204;2022-12-29T05:13:03;14.70;68.20
49132;DHT22;35149;51.196;6.204;2022-12-29T05:15:33;14.60;68.80
49132;DHT22;35149;51.196;6.204;2022-12-29T05:18:03;14.50;69.30
49132;DHT22;35149;51.196;6.204;2022-12-29T05:20:33;14.40;69.60
49132;DHT22;35149;51.196;6.204;2022-12-29T05:23:01;14.30;70.30
49132;DHT22;35149;51.196;6.204;2022-12-29T05:25:28;14.10;70.00
49132;DHT22;35149;51.196;6.204;2022-12-29T05:28:09;14.00;70.50
49132;DHT22;35149;51.196;6.204;2022-12-29T05:30:49;13.90;70.80
49132;DHT22;35149;51.196;6.204;2022-12-29T05:33:18;13.80;71.10
49132;DHT22;35149;51.196;6.204;2022-12-29T05:35:46;13.70;71.40
49132;DHT22;35149;51.196;6.204;2022-12-29T05:38:18;13.60;71.80
49132;DHT22;35149;51.196;6.204;2022-12-29T05:40:55;13.50;72.00
49132;DHT22;35149;51.196;6.204;2022-12-29T05:43:47;13.40;72.20
49132;DHT22;35149;51.196;6.204;2022-12-29T05:46:29;13.30;72.60
49132;DHT22;35149;51.196;6.204;2022-12-29T05:49:25;13.30;72.70
49132;DHT22;35149;51.196;6.204;2022-12-29T05:52:06;13.20;72.70
49132;DHT22;35149;51.196;6.204;2022-12-29T05:54:34;13.20;73.00
49132;DHT22;35149;51.196;6.204;2022-12-29T05:57:08;13.20;73.10
49132;DHT22;35149;51.196;6.204;2022-12-29T05:59:37;13.10;73.20
49132;DHT22;35149;51.196;6.204;2022-12-29T06:02:04;13.10;73.20
49132;DHT22;35149;51.196;6.204;2022-12-29T06:04:34;13.10;73.20
49132;DHT22;35149;51.196;6.204;2022-12-29T06:07:01;13.10;73.50
49132;DHT22;35149;51.196;6.204;2022-12-29T06:09:41;13.10;73.40
49132;DHT22;35149;51.196;6.204;2022-12-29T06:12:13;13.20;73.40
49132;DHT22;35149;51.196;6.204;2022-12-29T06:14:45;13.20;73.20
49132;DHT22;35149;51.196;6.204;2022-12-29T06:17:13;13.20;73.40
49132;DHT22;35149;51.196;6.204;2022-12-29T06:19:45;13.20;73.10
49132;DHT22;35149;51.196;6.204;2022-12-29T06:22:17;13.20;73.00
49132;DHT22;35149;51.196;6.204;2022-12-29T06:24:44;13.30;72.80
49132;DHT22;35149;51.196;6.204;2022-12-29T06:27:12;13.30;72.60
49132;DHT22;35149;51.196;6.204;2022-12-29T06:29:40;13.30;72.30
49132;DHT22;35149;51.196;6.204;2022-12-29T06:32:07;13.40;72.10
49132;DHT22;35149;51.196;6.204;2022-12-29T06:34:41;13.40;71.80
49132;DHT22;35149;51.196;6.204;2022-12-29T06:37:12;13.40;71.40
49132;DHT22;35149;51.196;6.204;2022-12-29T06:39:44;13.40;71.00
49132;DHT22;35149;51.196;6.204;2022-12-29T06:42:15;13.50;71.00
49132;DHT22;35149;51.196;6.204;2022-12-29T06:44:47;13.50;71.00
49132;DHT22;35149;51.196;6.204;2022-12-29T06:47:14;13.60;70.80
49132;DHT22;35149;51.196;6.204;2022-12-29T06:49:41;13.60;70.40
49132;DHT22;35149;51.196;6.204;2022-12-29T06:52:07;13.70;70.40
49132;DHT22;35149;51.196;6.204;2022-12-29T06:54:38;13.70;70.00
49132;DHT22;35149;51.196;6.204;2022-12-29T06:57:06;13.70;69.60
49132;DHT22;35149;51.196;6.204;2022-12-29T06:59:38;13.70;69.30
49132;DHT22;35149;51.196;6.204;2022-12-29T07:02:10;13.80;68.80
49132;DHT22;35149;51.196;6.204;2022-12-29T07:04:40;13.80;68.80
49132;DHT22;35149;51.196;6.204;2022-12-29T07:07:07;13.80;68.50
49132;DHT22;35149;51.196;6.204;2022-12-29T07:09:38;13.80;68.10
49132;DHT22;35149;51.196;6.204;2022-12-29T07:12:07;13.80;67.80
49132;DHT22;35149;51.196;6.204;2022-12-29T07:14:41;13.80;67.90
49132;DHT22;35149;51.196;6.204;2022-12-29T07:17:09;13.90;67.80
49132;DHT22;35149;51.196;6.204;2022-12-29T07:19:38;13.90;67.60
49132;DHT22;35149;51.196;6.204;2022-12-29T07:22:05;13.90;67.30
49132;DHT22;35149;51.196;6.204;2022-12-29T07:24:33;13.90;67.30
49132;DHT22;35149;51.196;6.204;2022-12-29T07:27:07;13.90;67.30
49132;DHT22;35149;51.196;6.204;2022-12-29T07:29:36;13.90;67.00
49132;DHT22;35149;51.196;6.204;2022-12-29T07:32:06;13.90;66.90
49132;DHT22;35149;51.196;6.204;2022-12-29T07:34:33;14.00;66.90
49132;DHT22;35149;51.196;6.204;2022-12-29T07:37:00;14.00;66.70
49132;DHT22;35149;51.196;6.204;2022-12-29T07:39:28;14.00;66.50
49132;DHT22;35149;51.196;6.204;2022-12-29T07:41:58;14.00;66.40
49132;DHT22;35149;51.196;6.204;2022-12-29T07:44:37;14.00;66.20
49132;DHT22;35149;51.196;6.204;2022-12-29T07:47:25;14.00;66.10
49132;DHT22;35149;51.196;6.204;2022-12-29T07:49:57;14.00;66.20
49132;DHT22;35149;51.196;6.204;2022-12-29T07:52:24;14.00;66.50
49132;DHT22;35149;51.196;6.204;2022-12-29T07:54:51;14.00;66.20
49132;DHT22;35149;51.196;6.204;2022-12-29T07:57:23;14.00;66.10
49132;DHT22;35149;51.196;6.204;2022-12-29T07:59:59;14.00;65.90
49132;DHT22;35149;51.196;6.204;2022-12-29T08:02:28;14.00;65.90
49132;DHT22;35149;51.196;6.204;2022-12-29T08:04:56;14.00;65.80
49132;DHT22;35149;51.196;6.204;2022-12-29T08:07:24;14.00;65.60
49132;DHT22;35149;51.196;6.204;2022-12-29T08:09:51;14.00;65.60
49132;DHT22;35149;51.196;6.204;2022-12-29T08:12:19;14.00;65.60
49132;DHT22;35149;51.196;6.204;2022-12-29T08:14:45;14.00;65.60
49132;DHT22;35149;51.196;6.204;2022-12-29T08:17:12;14.00;65.70
49132;DHT22;35149;51.196;6.204;2022-12-29T08:19:39;14.00;65.90
49132;DHT22;35149;51.196;6.204;2022-12-29T08:22:06;14.00;65.50
49132;DHT22;35149;51.196;6.204;2022-12-29T08:24:33;14.00;65.40
49132;DHT22;35149;51.196;6.204;2022-12-29T08:26:59;14.00;65.20
49132;DHT22;35149;51.196;6.204;2022-12-29T08:29:34;14.00;65.20
49132;DHT22;35149;51.196;6.204;2022-12-29T08:32:01;14.00;65.20
49132;DHT22;35149;51.196;6.204;2022-12-29T08:34:28;13.90;65.10
49132;DHT22;35149;51.196;6.204;2022-12-29T08:36:54;13.90;65.10
49132;DHT22;35149;51.196;6.204;2022-12-29T08:39:21;13.90;65.30
49132;DHT22;35149;51.196;6.204;2022-12-29T08:41:50;13.90;65.50
49132;DHT22;35149;51.196;6.204;2022-12-29T08:44:16;13.90;65.60
49132;DHT22;35149;51.196;6.204;2022-12-29T08:46:43;13.90;65.70
49132;DHT22;35149;51.196;6.204;2022-12-29T08:49:10;13.90;65.50
49132;DHT22;35149;51.196;6.204;2022-12-29T08:51:36;13.90;65.40
49132;DHT22;35149;51.196;6.204;2022-12-29T08:54:03;13.90;65.40
49132;DHT22;35149;51.196;6.204;2022-12-29T08:56:33;14.00;65.50
49132;DHT22;35149;51.196;6.204;2022-12-29T08:59:00;14.00;65.40
49132;DHT22;35149;51.196;6.204;2022-12-29T09:01:29;14.00;65.40
49132;DHT22;35149;51.196;6.204;2022-12-29T09:03:57;14.00;65.40
49132;DHT22;35149;51.196;6.204;2022-12-29T09:06:43;14.00;65.10
49132;DHT22;35149;51.196;6.204;2022-12-29T09:09:09;14.10;65.00
49132;DHT22;35149;51.196;6.204;2022-12-29T09:11:37;14.10;64.80
49132;DHT22;35149;51.196;6.204;2022-12-29T09:14:04;14.10;64.40
49132;DHT22;35149;51.196;6.204;2022-12-29T09:16:31;14.10;64.10
49132;DHT22;35149;51.196;6.204;2022-12-29T09:18:58;14.20;64.10
49132;DHT22;35149;51.196;6.204;2022-12-29T09:21:24;14.20;63.90
49132;DHT22;35149;51.196;6.204;2022-12-29T09:23:52;14.20;63.90
49132;DHT22;35149;51.196;6.204;2022-12-29T09:26:18;14.20;63.80
49132;DHT22;35149;51.196;6.204;2022-12-29T09:28:45;14.20;63.60
49132;DHT22;35149;51.196;6.204;2022-12-29T09:31:27;14.20;63.60
49132;DHT22;35149;51.196;6.204;2022-12-29T09:33:54;14.20;62.70
49132;DHT22;35149;51.196;6.204;2022-12-29T09:36:21;14.20;63.30
49132;DHT22;35149;51.196;6.204;2022-12-29T09:38:47;14.30;63.30
49132;DHT22;35149;51.196;6.204;2022-12-29T09:41:23;14.30;63.00
49132;DHT22;35149;51.196;6.204;2022-12-29T09:44:08;14.30;62.80
49132;DHT22;35149;51.196;6.204;2022-12-29T09:46:44;14.30;62.10
49132;DHT22;35149;51.196;6.204;2022-12-29T09:52:14;14.30;62.40
49132;DHT22;35149;51.196;6.204;2022-12-29T09:54:53;14.30;62.00
49132;DHT22;35149;51.196;6.204;2022-12-29T09:57:58;14.30;61.70
49132;DHT22;35149;51.196;6.204;2022-12-29T10:03:48;14.30;61.50
49132;DHT22;35149;51.196;6.204;2022-12-29T10:25:25;14.20;61.20
49132;DHT22;35149;51.196;6.204;2022-12-29T10:28:00;14.20;60.60
49132;DHT22;35149;51.196;6.204;2022-12-29T10:30:28;14.20;61.20
49132;DHT22;35149;51.196;6.204;2022-12-29T10:33:02;14.20;61.20
49132;DHT22;35149;51.196;6.204;2022-12-29T10:35:34;14.20;61.60
49132;DHT22;35149;51.196;6.204;2022-12-29T10:38:17;14.20;61.00
49132;DHT22;35149;51.196;6.204;2022-12-29T10:41:07;14.20;60.80
49132;DHT22;35149;51.196;6.204;2022-12-29T10:43:47;14.20;60.70
49132;DHT22;35149;51.196;6.204;2022-12-29T10:46:25;14.30;60.60
49132;DHT22;35149;51.196;6.204;2022-12-29T10:48:55;14.30;60.70
49132;DHT22;35149;51.196;6.204;2022-12-29T10:51:22;14.30;60.80
49132;DHT22;35149;51.196;6.204;2022-12-29T10:54:18;14.30;60.60
49132;DHT22;35149;51.196;6.204;2022-12-29T10:56:52;14.30;60.00
49132;DHT22;35149;51.196;6.204;2022-12-29T10:59:26;14.40;60.30
49132;DHT22;35149;51.196;6.204;2022-12-29T11:07:36;14.50;59.80
49132;DHT22;35149;51.196;6.204;2022-12-29T11:10:38;14.50;60.00
49132;DHT22;35149;51.196;6.204;2022-12-29T11:15:40;14.60;59.60
49132;DHT22;35149;51.196;6.204;2022-12-29T11:18:21;14.70;60.50
49132;DHT22;35149;51.196;6.204;2022-12-29T11:20:59;14.70;59.30
49132;DHT22;35149;51.196;6.204;2022-12-29T11:23:34;14.70;59.10
49132;DHT22;35149;51.196;6.204;2022-12-29T11:26:22;14.70;58.90
49132;DHT22;35149;51.196;6.204;2022-12-29T11:31:42;14.70;58.60
49132;DHT22;35149;51.196;6.204;2022-12-29T11:34:15;14.70;59.10
49132;DHT22;35149;51.196;6.204;2022-12-29T11:36:42;14.70;59.10
49132;DHT22;35149;51.196;6.204;2022-12-29T11:39:26;14.70;58.90
49132;DHT22;35149;51.196;6.204;2022-12-29T11:41:55;14.70;58.20
49132;DHT22;35149;51.196;6.204;2022-12-29T11:44:26;14.70;58.70
49132;DHT22;35149;51.196;6.204;2022-12-29T11:46:54;14.70;58.70
49132;DHT22;35149;51.196;6.204;2022-12-29T11:49:24;14.70;58.60
49132;DHT22;35149;51.196;6.204;2022-12-29T11:51:58;14.70;58.50
49132;DHT22;35149;51.196;6.204;2022-12-29T11:54:32;14.60;58.50
49132;DHT22;35149;51.196;6.204;2022-12-29T11:57:10;14.60;58.10
49132;DHT22;35149;51.196;6.204;2022-12-29T11:59:42;14.60;58.00
49132;DHT22;35149;51.196;6.204;2022-12-29T12:08:15;14.60;58.00
49132;DHT22;35149;51.196;6.204;2022-12-29T12:10:53;14.60;58.40
49132;DHT22;35149;51.196;6.204;2022-12-29T12:13:49;14.60;58.50
49132;DHT22;35149;51.196;6.204;2022-12-29T12:16:22;14.60;58.30
49132;DHT22;35149;51.196;6.204;2022-12-29T12:21:47;14.60;58.10
49132;DHT22;35149;51.196;6.204;2022-12-29T12:26:58;14.60;58.80
49132;DHT22;35149;51.196;6.204;2022-12-29T12:32:23;14.60;58.50
49132;DHT22;35149;51.196;6.204;2022-12-29T12:34:54;14.60;58.30
49132;DHT22;35149;51.196;6.204;2022-12-29T12:37:43;14.60;58.70
49132;DHT22;35149;51.196;6.204;2022-12-29T12:41:23;14.60;58.40
49132;DHT22;35149;51.196;6.204;2022-12-29T12:49:16;14.70;58.30
49132;DHT22;35149;51.196;6.204;2022-12-29T12:57:53;14.70;58.20
49132;DHT22;35149;51.196;6.204;2022-12-29T13:00:24;14.70;59.10
49132;DHT22;35149;51.196;6.204;2022-12-29T13:13:48;14.50;58.40
49132;DHT22;35149;51.196;6.204;2022-12-29T13:16:51;14.50;58.50
49132;DHT22;35149;51.196;6.204;2022-12-29T13:19:41;14.50;58.40
49132;DHT22;35149;51.196;6.204;2022-12-29T13:22:32;14.50;58.70
49132;DHT22;35149;51.196;6.204;2022-12-29T13:25:59;14.50;58.30
49132;DHT22;35149;51.196;6.204;2022-12-29T13:31:31;14.50;58.10
49132;DHT22;35149;51.196;6.204;2022-12-29T13:34:12;14.50;58.10
49132;DHT22;35149;51.196;6.204;2022-12-29T13:36:46;14.50;58.30
49132;DHT22;35149;51.196;6.204;2022-12-29T13:39:28;14.50;58.30
49132;DHT22;35149;51.196;6.204;2022-12-29T13:41:57;14.50;58.00
49132;DHT22;35149;51.196;6.204;2022-12-29T13:47:15;14.50;58.30
49132;DHT22;35149;51.196;6.204;2022-12-29T13:49:45;14.50;58.10
49132;DHT22;35149;51.196;6.204;2022-12-29T13:52:21;14.50;58.30
49132;DHT22;35149;51.196;6.204;2022-12-29T13:55:29;14.40;58.00
49132;DHT22;35149;51.196;6.204;2022-12-29T13:58:07;14.50;57.90
49132;DHT22;35149;51.196;6.204;2022-12-29T14:01:07;14.50;58.40
49132;DHT22;35149;51.196;6.204;2022-12-29T14:06:21;14.50;57.90
49132;DHT22;35149;51.196;6.204;2022-12-29T14:08:57;14.50;58.40
49132;DHT22;35149;51.196;6.204;2022-12-29T14:11:33;14.50;58.30
49132;DHT22;35149;51.196;6.204;2022-12-29T14:14:27;14.60;58.10
49132;DHT22;35149;51.196;6.204;2022-12-29T14:17:10;14.60;58.00
49132;DHT22;35149;51.196;6.204;2022-12-29T14:19:42;14.60;58.30
49132;DHT22;35149;51.196;6.204;2022-12-29T14:22:11;14.60;58.20
49132;DHT22;35149;51.196;6.204;2022-12-29T14:24:42;14.60;58.30
49132;DHT22;35149;51.196;6.204;2022-12-29T14:34:57;14.50;57.90
49132;DHT22;35149;51.196;6.204;2022-12-29T14:37:36;14.50;57.80
49132;DHT22;35149;51.196;6.204;2022-12-29T14:42:33;14.40;58.00
49132;DHT22;35149;51.196;6.204;2022-12-29T14:45:01;14.40;58.00
49132;DHT22;35149;51.196;6.204;2022-12-29T14:47:52;14.40;58.20
49132;DHT22;35149;51.196;6.204;2022-12-29T14:50:42;14.40;57.90
49132;DHT22;35149;51.196;6.204;2022-12-29T14:53:44;14.40;57.90
49132;DHT22;35149;51.196;6.204;2022-12-29T14:56:12;14.30;57.90
49132;DHT22;35149;51.196;6.204;2022-12-29T14:58:58;14.30;58.30
49132;DHT22;35149;51.196;6.204;2022-12-29T15:01:43;14.30;57.80
49132;DHT22;35149;51.196;6.204;2022-12-29T15:04:25;14.30;57.80
49132;DHT22;35149;51.196;6.204;2022-12-29T15:06:53;14.20;58.00
49132;DHT22;35149;51.196;6.204;2022-12-29T15:14:53;14.20;57.70
49132;DHT22;35149;51.196;6.204;2022-12-29T15:17:32;14.10;58.00
49132;DHT22;35149;51.196;6.204;2022-12-29T15:20:29;14.10;58.00
49132;DHT22;35149;51.196;6.204;2022-12-29T15:23:12;14.00;58.00
49132;DHT22;35149;51.196;6.204;2022-12-29T15:25:58;14.00;58.20
49132;DHT22;35149;51.196;6.204;2022-12-29T15:28:27;13.90;58.40
49132;DHT22;35149;51.196;6.204;2022-12-29T15:30:56;13.80;58.70
49132;DHT22;35149;51.196;6.204;2022-12-29T15:33:28;13.80;58.80
49132;DHT22;35149;51.196;6.204;2022-12-29T15:35:57;13.80;58.90
49132;DHT22;35149;51.196;6.204;2022-12-29T15:38:29;13.70;58.90
49132;DHT22;35149;51.196;6.204;2022-12-29T15:41:39;13.70;59.20
49132;DHT22;35149;51.196;6.204;2022-12-29T15:47:04;13.60;59.40
49132;DHT22;35149;51.196;6.204;2022-12-29T15:49:32;13.50;59.50
49132;DHT22;35149;51.196;6.204;2022-12-29T15:51:59;13.50;59.60
49132;DHT22;35149;51.196;6.204;2022-12-29T15:54:29;13.40;59.70
49132;DHT22;35149;51.196;6.204;2022-12-29T15:56:56;13.40;59.90
49132;DHT22;35149;51.196;6.204;2022-12-29T15:59:25;13.40;60.00
49132;DHT22;35149;51.196;6.204;2022-12-29T16:01:54;13.40;60.10
49132;DHT22;35149;51.196;6.204;2022-12-29T16:04:22;13.40;60.30
49132;DHT22;35149;51.196;6.204;2022-12-29T16:06:57;13.40;60.30
49132;DHT22;35149;51.196;6.204;2022-12-29T16:12:00;13.40;60.20
49132;DHT22;35149;51.196;6.204;2022-12-29T16:14:33;13.40;60.20
49132;DHT22;35149;51.196;6.204;2022-12-29T16:17:06;13.40;60.10
49132;DHT22;35149;51.196;6.204;2022-12-29T16:19:39;13.30;59.90
49132;DHT22;35149;51.196;6.204;2022-12-29T16:22:11;13.40;59.80
49132;DHT22;35149;51.196;6.204;2022-12-29T16:24:40;13.40;59.60
49132;DHT22;35149;51.196;6.204;2022-12-29T16:29:43;13.40;59.60
49132;DHT22;35149;51.196;6.204;2022-12-29T16:32:30;13.40;59.50
49132;DHT22;35149;51.196;6.204;2022-12-29T16:35:17;13.40;59.10
49132;DHT22;35149;51.196;6.204;2022-12-29T16:37:44;13.40;59.00
49132;DHT22;35149;51.196;6.204;2022-12-29T16:42:46;13.40;58.90
49132;DHT22;35149;51.196;6.204;2022-12-29T16:50:32;13.30;59.10
49132;DHT22;35149;51.196;6.204;2022-12-29T16:53:00;13.30;59.20
49132;DHT22;35149;51.196;6.204;2022-12-29T16:55:27;13.30;60.40
49132;DHT22;35149;51.196;6.204;2022-12-29T16:57:55;13.30;61.70
49132;DHT22;35149;51.196;6.204;2022-12-29T17:00:25;13.20;62.10
49132;DHT22;35149;51.196;6.204;2022-12-29T17:02:56;13.00;62.40
49132;DHT22;35149;51.196;6.204;2022-12-29T17:05:24;12.80;62.90
49132;DHT22;35149;51.196;6.204;2022-12-29T17:07:51;12.70;63.60
49132;DHT22;35149;51.196;6.204;2022-12-29T17:10:19;12.50;64.30
49132;DHT22;35149;51.196;6.204;2022-12-29T17:12:47;12.40;64.90
49132;DHT22;35149;51.196;6.204;2022-12-29T17:15:20;12.20;65.40
49132;DHT22;35149;51.196;6.204;2022-12-29T17:17:51;12.10;66.30
49132;DHT22;35149;51.196;6.204;2022-12-29T17:22:51;11.80;67.70
49132;DHT22;35149;51.196;6.204;2022-12-29T17:25:23;11.70;67.40
49132;DHT22;35149;51.196;6.204;2022-12-29T17:27:56;11.50;67.80
49132;DHT22;35149;51.196;6.204;2022-12-29T17:30:25;11.50;68.00
49132;DHT22;35149;51.196;6.204;2022-12-29T17:33:03;11.40;68.40
49132;DHT22;35149;51.196;6.204;2022-12-29T17:35:30;11.30;69.20
49132;DHT22;35149;51.196;6.204;2022-12-29T17:37:57;11.30;69.10
49132;DHT22;35149;51.196;6.204;2022-12-29T17:40:27;11.20;69.30
49132;DHT22;35149;51.196;6.204;2022-12-29T17:42:57;11.20;69.70
49132;DHT22;35149;51.196;6.204;2022-12-29T17:45:29;11.20;70.00
49132;DHT22;35149;51.196;6.204;2022-12-29T17:47:57;11.10;70.40
49132;DHT22;35149;51.196;6.204;2022-12-29T17:50:28;11.10;70.30
49132;DHT22;35149;51.196;6.204;2022-12-29T17:52:57;11.10;70.20
49132;DHT22;35149;51.196;6.204;2022-12-29T17:55:27;11.00;70.00
49132;DHT22;35149;51.196;6.204;2022-12-29T17:58:21;11.00;70.00
49132;DHT22;35149;51.196;6.204;2022-12-29T18:00:53;11.00;71.10
49132;DHT22;35149;51.196;6.204;2022-12-29T18:03:29;11.00;70.20
49132;DHT22;35149;51.196;6.204;2022-12-29T18:05:59;10.90;70.10
49132;DHT22;35149;51.196;6.204;2022-12-29T18:08:30;10.90;69.90
49132;DHT22;35149;51.196;6.204;2022-12-29T18:10:58;10.80;70.00
49132;DHT22;35149;51.196;6.204;2022-12-29T18:13:28;10.80;70.10
49132;DHT22;35149;51.196;6.204;2022-12-29T18:16:11;10.80;70.30
49132;DHT22;35149;51.196;6.204;2022-12-29T18:18:42;10.70;70.10
49132;DHT22;35149;51.196;6.204;2022-12-29T18:21:20;10.70;70.00
49132;DHT22;35149;51.196;6.204;2022-12-29T18:23:47;10.70;70.30
49132;DHT22;35149;51.196;6.204;2022-12-29T18:26:19;10.70;70.00
49132;DHT22;35149;51.196;6.204;2022-12-29T18:28:53;10.60;70.10
49132;DHT22;35149;51.196;6.204;2022-12-29T18:31:25;10.60;70.10
49132;DHT22;35149;51.196;6.204;2022-12-29T18:33:53;10.60;70.00
49132;DHT22;35149;51.196;6.204;2022-12-29T18:36:24;10.60;70.00
49132;DHT22;35149;51.196;6.204;2022-12-29T18:38:50;10.60;69.90
49132;DHT22;35149;51.196;6.204;2022-12-29T18:41:27;10.50;69.80